Time;durP1;ratioP1;P1;durP2;ratioP2;P2;SDS_P1;SDS_P2;PMS_P1;PMS_P2;Temp;Humidity;BMP_temperature;BMP_pressure;BME280_temperature;BME280_humidity;BME280_pressure;Samples;Min_cycle;Max_cycle;Signal;HPM_P1;HPM_P2
2022/09/24 00:07:52;;;;;;;1.45;1.08;;;;;;;16.53;85.89;100941.66;21215206;27;20039;-74
2022/09/24 00:17:53;;;;;;;1.42;0.90;;;;;;;16.46;86.01;100923.50;21218680;27;20622;-74
2022/09/24 00:27:55;;;;;;;1.02;0.90;;;;;;;16.54;86.05;100939.84;21148537;27;20047;-74
2022/09/24 00:37:57;;;;;;;1.40;0.90;;;;;;;16.55;85.89;100936.19;21218117;27;20470;-75
2022/09/24 00:47:58;;;;;;;1.05;0.88;;;;;;;16.54;85.61;100929.09;21221870;27;20133;-74
2022/09/24 00:58:02;;;;;;;2.05;0.70;;;;;;;16.54;86.02;100915.66;21215173;27;20590;-74
2022/09/24 01:08:11;;;;;;;0.93;0.80;;;;;;;16.54;85.93;100907.59;21213761;27;20408;-73
2022/09/24 01:18:22;;;;;;;1.10;0.80;;;;;;;16.55;86.06;100909.31;21213242;27;20069;-74
2022/09/24 01:28:42;;;;;;;1.52;1.00;;;;;;;16.56;86.03;100900.25;21105692;27;20043;-74
2022/09/24 01:38:46;;;;;;;1.33;0.90;;;;;;;16.56;86.07;100888.66;21213445;27;20047;-74
2022/09/24 01:48:48;;;;;;;1.17;1.08;;;;;;;16.56;85.89;100894.03;21208973;27;20057;-74
2022/09/24 01:58:59;;;;;;;1.50;1.10;;;;;;;16.56;86.00;100878.75;21212361;27;20047;-74
2022/09/24 02:09:01;;;;;;;1.15;0.70;;;;;;;16.56;86.09;100873.38;21219324;27;20410;-74
2022/09/24 02:19:10;;;;;;;1.13;0.90;;;;;;;16.57;86.00;100866.16;21228702;27;20541;-73
2022/09/24 02:29:12;;;;;;;2.35;1.08;;;;;;;16.56;86.09;100862.63;21166587;27;20053;-74
2022/09/24 02:39:13;;;;;;;1.05;0.95;;;;;;;16.56;85.82;100846.50;21208992;27;20047;-74
2022/09/24 02:49:15;;;;;;;1.58;1.00;;;;;;;16.57;85.92;100853.59;21225342;27;20380;-74
2022/09/24 02:59:18;;;;;;;1.00;0.70;;;;;;;16.57;86.10;100847.34;21225828;27;20092;-74
2022/09/24 03:09:19;;;;;;;1.85;0.95;;;;;;;16.54;86.08;100840.41;21224844;27;20043;-74
2022/09/24 03:19:21;;;;;;;1.02;0.88;;;;;;;16.57;86.28;100831.22;21185995;27;20049;-74
2022/09/24 03:30:58;;;;;;;1.02;0.90;;;;;;;16.58;86.08;100831.09;21179227;27;20123;-74
2022/09/24 03:39:44;;;;;;;2.00;0.90;;;;;;;16.57;86.10;100837.47;21221613;27;20507;-74
2022/09/24 03:49:45;;;;;;;1.00;0.90;;;;;;;16.52;86.17;100834.31;21222830;27;20063;-74
2022/09/24 03:59:47;;;;;;;1.27;0.70;;;;;;;16.59;86.08;100838.19;21220775;27;20051;-74
2022/09/24 04:09:48;;;;;;;1.83;0.85;;;;;;;16.51;86.25;100820.00;21220423;27;20116;-74
2022/09/24 04:19:52;;;;;;;1.00;0.90;;;;;;;16.58;86.06;100825.72;21169124;27;20035;-74
2022/09/24 04:29:54;;;;;;;1.10;0.95;;;;;;;16.59;85.94;100830.13;21217428;27;20509;-74
2022/09/24 04:39:55;;;;;;;1.00;0.60;;;;;;;16.42;85.97;100795.78;21199359;27;20100;-74
2022/09/24 04:49:57;;;;;;;0.85;0.85;;;;;;;16.59;86.32;100823.91;21017075;27;20049;-75
2022/09/24 04:59:59;;;;;;;5.32;1.58;;;;;;;16.62;86.63;100820.97;20744091;27;20111;-74
2022/09/24 05:10:01;;;;;;;5.53;2.05;;;;;;;16.66;90.84;100823.25;20799969;27;20064;-74
2022/09/24 05:20:02;;;;;;;2.80;1.90;;;;;;;16.35;91.63;100772.13;20959621;27;20047;-74
2022/09/24 05:30:05;;;;;;;8.13;2.28;;;;;;;16.78;92.68;100839.31;21195418;27;20396;-74
2022/09/24 05:50:27;;;;;;;5.25;1.90;;;;;;;16.77;93.80;100841.16;20936755;27;20058;-73
2022/09/24 06:00:29;;;;;;;3.38;1.90;;;;;;;16.77;93.51;100842.97;20744438;27;20407;-73
2022/09/24 06:10:31;;;;;;;3.10;1.40;;;;;;;16.73;93.33;100844.22;20746241;27;20052;-73
2022/09/24 06:20:32;;;;;;;3.90;1.70;;;;;;;16.77;93.12;100856.41;20776472;27;20049;-74
2022/09/24 06:30:40;;;;;;;6.88;2.45;;;;;;;16.72;91.59;100853.28;20722285;27;20181;-74
2022/09/24 06:40:44;;;;;;;3.30;2.25;;;;;;;16.82;92.65;100873.03;20756734;27;20047;-75
2022/09/24 06:50:46;;;;;;;5.37;2.53;;;;;;;16.81;93.67;100876.72;20736473;27;20050;-74
2022/09/24 07:00:57;;;;;;;6.32;2.42;;;;;;;16.79;94.14;100873.28;20768402;27;20045;-74
2022/09/24 07:10:59;;;;;;;4.38;2.50;;;;;;;16.82;93.79;100884.63;20825306;27;20037;-74
2022/09/24 07:21:01;;;;;;;4.32;2.60;;;;;;;16.84;93.44;100879.16;21096930;27;20055;-74
2022/09/24 07:31:03;;;;;;;2.85;2.10;;;;;;;17.00;92.82;100907.44;21222135;27;20050;-74
2022/09/24 07:41:06;;;;;;;2.58;2.10;;;;;;;17.01;92.14;100901.09;21223669;27;20057;-74
2022/09/24 07:51:08;;;;;;;3.53;1.80;;;;;;;16.96;91.69;100898.75;21220756;27;20081;-75
2022/09/24 08:01:10;;;;;;;2.72;1.70;;;;;;;17.04;91.14;100915.13;21220567;27;20053;-75
2022/09/24 08:11:12;;;;;;;2.33;1.63;;;;;;;17.07;90.87;100911.31;20747988;27;20061;-74
2022/09/24 08:21:14;;;;;;;2.15;1.73;;;;;;;16.99;90.76;100916.50;20761468;27;20582;-74
2022/09/24 08:31:15;;;;;;;1.90;1.50;;;;;;;17.10;90.76;100929.88;20793140;27;20053;-74
2022/09/24 08:41:33;;;;;;;2.15;1.60;;;;;;;17.13;90.87;100937.69;20814977;27;20049;-73
2022/09/24 08:51:44;;;;;;;2.85;1.27;;;;;;;17.14;90.97;100935.88;20820241;27;20573;-73
2022/09/24 09:02:07;;;;;;;2.83;1.50;;;;;;;17.15;90.82;100934.88;20797850;27;20046;-73
2022/09/24 09:12:13;;;;;;;2.65;1.38;;;;;;;17.17;90.85;100949.06;20815261;27;20123;-73
2022/09/24 09:22:16;;;;;;;2.10;1.38;;;;;;;17.15;90.90;100937.56;20808514;27;20042;-73
2022/09/24 09:32:40;;;;;;;2.05;1.20;;;;;;;17.20;90.81;100952.31;20784185;27;20147;-73
2022/09/24 09:42:44;;;;;;;2.00;1.10;;;;;;;17.22;90.78;100965.66;20815665;27;20056;-73
2022/09/24 09:52:46;;;;;;;1.88;1.17;;;;;;;17.22;90.78;100961.09;20802291;27;20133;-74
2022/09/24 10:02:52;;;;;;;2.17;1.30;;;;;;;17.13;90.91;100939.53;20782033;28;20058;-74
2022/09/24 10:13:11;;;;;;;2.10;1.05;;;;;;;17.24;90.96;100969.94;20764344;27;20041;-74
2022/09/24 10:23:22;;;;;;;2.45;1.05;;;;;;;17.24;90.93;100975.31;20741402;27;20050;-74
2022/09/24 10:33:24;;;;;;;2.15;1.15;;;;;;;17.24;90.93;100980.69;20745476;27;20049;-73
2022/09/24 10:43:25;;;;;;;1.50;1.00;;;;;;;17.23;91.22;100995.13;20752219;27;20057;-73
2022/09/24 10:53:29;;;;;;;1.90;1.20;;;;;;;17.23;91.26;100989.75;20844348;27;20055;-74
2022/09/24 11:03:46;;;;;;;2.05;1.13;;;;;;;17.23;91.32;100989.75;20762288;27;20092;-74
2022/09/24 11:13:56;;;;;;;1.95;1.00;;;;;;;17.22;91.35;100993.41;20727428;28;20062;-73
2022/09/24 11:24:10;;;;;;;3.70;1.30;;;;;;;17.22;91.19;101000.63;20764867;27;20067;-74
2022/09/24 11:34:27;;;;;;;1.83;1.00;;;;;;;17.22;90.97;101004.16;20777494;27;20152;-74
2022/09/24 11:44:51;;;;;;;1.00;0.88;;;;;;;17.21;90.89;101005.13;20744243;27;20060;-74
2022/09/24 11:54:59;;;;;;;2.13;1.00;;;;;;;17.19;90.84;101012.50;20740424;27;20049;-75
2022/09/24 12:05:07;;;;;;;1.50;1.00;;;;;;;17.15;91.19;101019.13;20733266;27;20049;-74
2022/09/24 12:15:20;;;;;;;1.17;1.00;;;;;;;17.12;91.39;101011.31;20720713;27;20683;-74
2022/09/24 12:25:21;;;;;;;1.58;1.10;;;;;;;16.82;91.43;100964.47;20744775;27;20053;-74
2022/09/24 12:35:57;;;;;;;1.10;0.80;;;;;;;17.06;91.54;101010.00;20784230;27;20062;-73
2022/09/24 12:46:01;;;;;;;1.67;0.80;;;;;;;17.05;91.49;101010.09;20725762;27;20045;-74
2022/09/24 12:56:05;;;;;;;1.03;0.77;;;;;;;16.99;91.46;101006.09;20717234;27;20073;-75
2022/09/24 13:06:39;;;;;;;2.15;0.88;;;;;;;17.02;91.65;101024.69;20727945;27;20114;-75
2022/09/24 13:16:45;;;;;;;1.70;1.10;;;;;;;17.02;91.49;101018.44;20703290;27;20054;-75
2022/09/24 13:26:47;;;;;;;1.30;0.70;;;;;;;17.02;91.60;101027.38;20709526;27;20042;-76
2022/09/24 13:36:58;;;;;;;0.68;0.68;;;;;;;17.04;92.05;101024.53;20700466;27;20169;-76
2022/09/24 13:47:13;;;;;;;0.80;0.70;;;;;;;17.03;92.40;101017.44;20702326;27;20570;-76
2022/09/24 13:57:26;;;;;;;2.25;0.80;;;;;;;16.58;92.69;100960.13;20697574;27;20053;-75
2022/09/24 14:07:27;;;;;;;1.40;0.80;;;;;;;16.91;92.89;100992.41;20748388;27;20054;-76
2022/09/24 14:17:29;;;;;;;1.00;0.70;;;;;;;17.06;93.41;101019.88;20729087;27;20054;-75
2022/09/24 14:27:31;;;;;;;0.77;0.60;;;;;;;16.85;93.47;101001.84;20735399;27;20041;-74
2022/09/24 14:37:37;;;;;;;0.77;0.77;;;;;;;17.03;93.71;101036.28;20752880;27;20073;-74
2022/09/24 14:47:38;;;;;;;5.53;1.00;;;;;;;17.03;94.03;101037.16;20752506;27;20544;-73
2022/09/24 14:57:41;;;;;;;2.35;0.98;;;;;;;17.05;95.31;101045.06;20744611;27;20501;-73
2022/09/24 15:07:49;;;;;;;2.15;0.68;;;;;;;17.07;96.33;101048.50;20781893;27;20073;-73
2022/09/24 15:17:50;;;;;;;1.67;0.70;;;;;;;17.08;96.88;101050.19;20741119;27;20045;-73
2022/09/24 15:27:53;;;;;;;2.35;0.70;;;;;;;17.11;97.39;101052.63;20711786;27;20042;-74
2022/09/24 15:37:57;;;;;;;1.10;0.57;;;;;;;17.15;97.78;101055.94;20712815;27;20046;-73
2022/09/24 15:47:59;;;;;;;3.15;1.10;;;;;;;17.19;98.16;101063.59;20719869;27;20109;-73
2022/09/24 15:58:00;;;;;;;3.83;1.42;;;;;;;17.22;98.58;101068.72;20747607;27;20044;-73
2022/09/24 16:08:02;;;;;;;4.65;2.45;;;;;;;17.24;99.68;101069.47;20738571;27;20049;-73
2022/09/24 16:18:05;;;;;;;3.35;1.58;;;;;;;17.29;100.00;101073.63;20702602;27;20122;-73
2022/09/24 16:28:06;;;;;;;3.25;1.30;;;;;;;17.33;100.00;101085.84;20701132;27;20054;-73
2022/09/24 16:38:08;;;;;;;4.85;1.63;;;;;;;17.35;100.00;101084.72;20696490;27;20144;-73
2022/09/24 16:48:10;;;;;;;3.83;1.30;;;;;;;17.36;100.00;101091.81;20699638;27;20120;-74
2022/09/24 16:58:12;;;;;;;5.18;1.77;;;;;;;17.37;100.00;101098.88;20709096;27;20448;-73
2022/09/24 17:08:13;;;;;;;2.40;1.40;;;;;;;17.37;100.00;101112.34;20692433;28;20049;-74
2022/09/24 17:18:15;;;;;;;4.65;0.95;;;;;;;17.35;100.00;101113.47;20701422;27;20060;-75
2022/09/24 17:28:16;;;;;;;3.65;1.30;;;;;;;17.32;100.00;101133.41;20752565;27;20114;-74
2022/09/24 17:38:18;;;;;;;3.97;1.13;;;;;;;17.31;100.00;101133.56;20707109;27;20052;-77
2022/09/24 17:48:19;;;;;;;3.08;1.02;;;;;;;17.24;100.00;101139.44;20738849;27;20052;-74
2022/09/24 17:58:21;;;;;;;3.45;1.17;;;;;;;17.27;100.00;101141.00;20731869;27;20053;-73
2022/09/24 18:08:22;;;;;;;5.07;1.25;;;;;;;17.26;100.00;101150.06;20744840;27;20066;-74
2022/09/24 18:18:24;;;;;;;2.65;0.90;;;;;;;17.26;100.00;101168.91;20763266;27;20057;-74
2022/09/24 18:28:25;;;;;;;2.60;1.10;;;;;;;17.24;100.00;101174.41;20756579;27;20050;-74
2022/09/24 18:38:28;;;;;;;1.75;0.75;;;;;;;17.06;100.00;101140.94;20736350;27;20061;-73
2022/09/24 18:48:31;;;;;;;1.92;0.85;;;;;;;17.23;100.00;101178.09;20768765;27;20054;-74
2022/09/24 18:58:33;;;;;;;2.20;0.70;;;;;;;17.22;100.00;101170.97;20822250;27;20554;-74
2022/09/24 19:08:34;;;;;;;2.20;0.88;;;;;;;17.00;100.00;101139.59;20762240;27;20049;-74
2022/09/24 19:18:37;;;;;;;2.85;1.00;;;;;;;17.23;100.00;101187.97;20783813;27;20102;-74
2022/09/24 19:28:40;;;;;;;2.53;0.90;;;;;;;17.22;100.00;101188.97;20737677;27;20053;-74
2022/09/24 19:38:43;;;;;;;4.88;1.05;;;;;;;17.20;100.00;101194.44;20748137;27;20060;-74
2022/09/24 19:48:47;;;;;;;12.70;1.60;;;;;;;17.20;100.00;101197.16;20802720;27;20041;-74
2022/09/24 19:58:51;;;;;;;1.58;0.73;;;;;;;17.17;100.00;101200.09;20943991;27;20046;-74
2022/09/24 20:08:54;;;;;;;1.63;0.77;;;;;;;17.14;100.00;101197.66;21221235;27;20096;-74
2022/09/24 20:18:59;;;;;;;2.58;1.15;;;;;;;17.14;100.00;101194.13;21218513;27;20512;-74
2022/09/24 20:29:01;;;;;;;2.73;0.67;;;;;;;17.10;100.00;101197.06;21220192;27;20406;-74
2022/09/24 20:39:03;;;;;;;2.60;0.80;;;;;;;17.02;100.00;101188.75;21217504;27;20035;-73
2022/09/24 20:49:04;;;;;;;1.88;0.60;;;;;;;17.06;100.00;101209.03;21216621;27;20096;-74
2022/09/24 20:59:06;;;;;;;1.05;0.57;;;;;;;17.06;100.00;101216.25;21171208;27;20047;-74
2022/09/24 21:09:08;;;;;;;1.17;0.60;;;;;;;17.04;100.00;101219.06;21215363;27;20047;-74
2022/09/24 21:19:11;;;;;;;1.85;0.68;;;;;;;16.95;100.00;101196.41;21214134;27;20099;-74
2022/09/24 21:29:19;;;;;;;0.80;0.50;;;;;;;17.02;100.00;101201.34;21213605;27;20092;-74
2022/09/24 21:39:22;;;;;;;1.17;0.60;;;;;;;17.02;100.00;101212.09;21213128;27;20055;-74
2022/09/24 21:49:23;;;;;;;1.45;0.68;;;;;;;17.00;100.00;101216.75;21212458;27;20051;-74
2022/09/24 22:09:45;;;;;;;1.38;0.85;;;;;;;16.66;100.00;101167.31;21213361;27;20062;-73
2022/09/24 22:19:46;;;;;;;1.42;0.47;;;;;;;16.96;100.00;101208.88;21212779;27;20507;-74
2022/09/24 22:29:48;;;;;;;1.00;0.50;;;;;;;16.95;100.00;101212.56;21227344;27;20043;-74
2022/09/24 22:39:49;;;;;;;1.10;0.60;;;;;;;16.94;100.00;101205.47;21228975;27;20496;-74
2022/09/24 22:49:51;;;;;;;0.73;0.45;;;;;;;16.95;100.00;101209.00;21227890;27;20088;-74
2022/09/24 22:59:52;;;;;;;0.82;0.47;;;;;;;16.93;100.00;101211.81;21136903;27;20180;-74
2022/09/24 23:09:54;;;;;;;1.10;0.47;;;;;;;16.92;100.00;101204.72;21226581;27;20039;-74
2022/09/24 23:19:55;;;;;;;1.05;0.50;;;;;;;16.92;100.00;101211.94;21225351;27;20054;-75
2022/09/24 23:29:57;;;;;;;0.98;0.60;;;;;;;16.91;99.97;101200.34;21223218;27;20073;-79
2022/09/24 23:40:00;;;;;;;2.08;0.50;;;;;;;16.82;99.71;101193.00;21223513;27;20579;-74
2022/09/24 23:50:01;;;;;;;1.35;0.70;;;;;;;16.89;99.65;101202.28;21208421;27;20556;-74
